sensor_id;sensor_type;location;lat;lon;timestamp;P1;durP1;ratioP1;P2;durP2;ratioP2
44606;SDS011;30315;46.072;14.474;2023-03-25T00:00:15;4.97;;;4.68;;
44606;SDS011;30315;46.072;14.474;2023-03-25T00:02:45;5.20;;;4.78;;
44606;SDS011;30315;46.072;14.474;2023-03-25T00:05:15;5.55;;;4.78;;
44606;SDS011;30315;46.072;14.474;2023-03-25T00:07:44;5.22;;;4.82;;
44606;SDS011;30315;46.072;14.474;2023-03-25T00:10:13;8.57;;;5.10;;
44606;SDS011;30315;46.072;14.474;2023-03-25T00:12:41;5.70;;;5.28;;
44606;SDS011;30315;46.072;14.474;2023-03-25T00:15:09;5.45;;;4.95;;
44606;SDS011;30315;46.072;14.474;2023-03-25T00:17:37;6.00;;;5.40;;
44606;SDS011;30315;46.072;14.474;2023-03-25T00:20:05;5.28;;;4.88;;
44606;SDS011;30315;46.072;14.474;2023-03-25T00:22:37;5.50;;;4.97;;
44606;SDS011;30315;46.072;14.474;2023-03-25T00:25:11;6.03;;;4.80;;
44606;SDS011;30315;46.072;14.474;2023-03-25T00:27:43;4.63;;;4.22;;
44606;SDS011;30315;46.072;14.474;2023-03-25T00:30:13;5.15;;;4.65;;
44606;SDS011;30315;46.072;14.474;2023-03-25T00:32:41;5.40;;;4.90;;
44606;SDS011;30315;46.072;14.474;2023-03-25T00:35:11;5.43;;;4.93;;
44606;SDS011;30315;46.072;14.474;2023-03-25T00:37:39;5.85;;;5.38;;
44606;SDS011;30315;46.072;14.474;2023-03-25T00:40:06;6.63;;;5.20;;
44606;SDS011;30315;46.072;14.474;2023-03-25T00:42:34;5.50;;;5.10;;
44606;SDS011;30315;46.072;14.474;2023-03-25T00:45:02;5.05;;;4.63;;
44606;SDS011;30315;46.072;14.474;2023-03-25T00:47:29;5.40;;;5.00;;
44606;SDS011;30315;46.072;14.474;2023-03-25T00:49:56;5.32;;;4.85;;
44606;SDS011;30315;46.072;14.474;2023-03-25T00:52:23;5.63;;;5.07;;
44606;SDS011;30315;46.072;14.474;2023-03-25T00:54:51;6.63;;;4.43;;
44606;SDS011;30315;46.072;14.474;2023-03-25T00:57:19;4.68;;;4.38;;
44606;SDS011;30315;46.072;14.474;2023-03-25T00:59:47;5.75;;;5.25;;
44606;SDS011;30315;46.072;14.474;2023-03-25T01:02:16;4.72;;;4.40;;
44606;SDS011;30315;46.072;14.474;2023-03-25T01:04:44;5.47;;;4.97;;
44606;SDS011;30315;46.072;14.474;2023-03-25T01:07:12;4.43;;;4.07;;
44606;SDS011;30315;46.072;14.474;2023-03-25T01:09:42;4.60;;;4.20;;
44606;SDS011;30315;46.072;14.474;2023-03-25T01:12:12;5.05;;;4.65;;
44606;SDS011;30315;46.072;14.474;2023-03-25T01:14:40;4.55;;;4.15;;
44606;SDS011;30315;46.072;14.474;2023-03-25T01:17:08;4.97;;;4.13;;
44606;SDS011;30315;46.072;14.474;2023-03-25T01:19:36;4.55;;;4.25;;
44606;SDS011;30315;46.072;14.474;2023-03-25T01:22:03;5.47;;;4.70;;
44606;SDS011;30315;46.072;14.474;2023-03-25T01:24:30;4.95;;;4.63;;
44606;SDS011;30315;46.072;14.474;2023-03-25T01:26:56;5.20;;;4.80;;
44606;SDS011;30315;46.072;14.474;2023-03-25T01:29:26;4.72;;;4.35;;
44606;SDS011;30315;46.072;14.474;2023-03-25T01:31:54;5.18;;;4.18;;
44606;SDS011;30315;46.072;14.474;2023-03-25T01:34:21;4.38;;;4.07;;
44606;SDS011;30315;46.072;14.474;2023-03-25T01:36:48;4.70;;;4.40;;
44606;SDS011;30315;46.072;14.474;2023-03-25T01:39:17;5.18;;;4.78;;
44606;SDS011;30315;46.072;14.474;2023-03-25T01:41:47;4.50;;;4.10;;
44606;SDS011;30315;46.072;14.474;2023-03-25T01:46:50;5.95;;;5.45;;
44606;SDS011;30315;46.072;14.474;2023-03-25T01:49:23;5.10;;;4.60;;
44606;SDS011;30315;46.072;14.474;2023-03-25T01:52:01;4.95;;;4.65;;
44606;SDS011;30315;46.072;14.474;2023-03-25T01:54:30;5.13;;;4.72;;
44606;SDS011;30315;46.072;14.474;2023-03-25T01:56:58;6.03;;;5.30;;
44606;SDS011;30315;46.072;14.474;2023-03-25T01:59:26;5.45;;;4.95;;
44606;SDS011;30315;46.072;14.474;2023-03-25T02:01:55;5.95;;;5.45;;
44606;SDS011;30315;46.072;14.474;2023-03-25T02:04:37;6.20;;;5.75;;
44606;SDS011;30315;46.072;14.474;2023-03-25T02:07:09;5.55;;;5.15;;
44606;SDS011;30315;46.072;14.474;2023-03-25T02:09:37;4.90;;;4.60;;
44606;SDS011;30315;46.072;14.474;2023-03-25T02:12:07;5.05;;;4.65;;
44606;SDS011;30315;46.072;14.474;2023-03-25T02:14:34;5.05;;;4.28;;
44606;SDS011;30315;46.072;14.474;2023-03-25T02:34:04;4.75;;;4.35;;
44606;SDS011;30315;46.072;14.474;2023-03-25T02:42:22;4.63;;;4.32;;
44606;SDS011;30315;46.072;14.474;2023-03-25T02:45:11;5.18;;;4.68;;
44606;SDS011;30315;46.072;14.474;2023-03-25T02:47:56;5.13;;;4.47;;
44606;SDS011;30315;46.072;14.474;2023-03-25T02:50:29;4.95;;;4.50;;
44606;SDS011;30315;46.072;14.474;2023-03-25T02:53:02;4.43;;;4.13;;
44606;SDS011;30315;46.072;14.474;2023-03-25T02:55:37;5.00;;;4.70;;
44606;SDS011;30315;46.072;14.474;2023-03-25T02:58:07;4.50;;;4.10;;
44606;SDS011;30315;46.072;14.474;2023-03-25T03:00:37;4.30;;;4.00;;
44606;SDS011;30315;46.072;14.474;2023-03-25T03:03:05;4.60;;;4.20;;
44606;SDS011;30315;46.072;14.474;2023-03-25T03:05:38;6.72;;;5.10;;
44606;SDS011;30315;46.072;14.474;2023-03-25T03:13:28;4.63;;;4.15;;
44606;SDS011;30315;46.072;14.474;2023-03-25T03:16:16;5.07;;;4.60;;
44606;SDS011;30315;46.072;14.474;2023-03-25T03:25:01;5.05;;;4.65;;
44606;SDS011;30315;46.072;14.474;2023-03-25T03:34:23;5.22;;;4.72;;
44606;SDS011;30315;46.072;14.474;2023-03-25T03:36:54;4.60;;;4.30;;
44606;SDS011;30315;46.072;14.474;2023-03-25T03:39:33;4.75;;;4.45;;
44606;SDS011;30315;46.072;14.474;2023-03-25T03:42:05;5.45;;;5.05;;
44606;SDS011;30315;46.072;14.474;2023-03-25T03:44:39;5.78;;;5.38;;
44606;SDS011;30315;46.072;14.474;2023-03-25T03:47:09;5.53;;;5.10;;
44606;SDS011;30315;46.072;14.474;2023-03-25T03:49:47;5.72;;;5.22;;
44606;SDS011;30315;46.072;14.474;2023-03-25T03:54:46;5.03;;;4.60;;
44606;SDS011;30315;46.072;14.474;2023-03-25T03:57:20;5.93;;;5.43;;
44606;SDS011;30315;46.072;14.474;2023-03-25T03:59:55;5.88;;;5.38;;
44606;SDS011;30315;46.072;14.474;2023-03-25T04:05:07;5.00;;;4.60;;
44606;SDS011;30315;46.072;14.474;2023-03-25T04:07:41;5.22;;;4.47;;
44606;SDS011;30315;46.072;14.474;2023-03-25T04:10:22;5.32;;;4.93;;
44606;SDS011;30315;46.072;14.474;2023-03-25T04:12:55;5.22;;;4.80;;
44606;SDS011;30315;46.072;14.474;2023-03-25T04:15:25;5.75;;;5.25;;
44606;SDS011;30315;46.072;14.474;2023-03-25T04:17:52;7.18;;;5.45;;
44606;SDS011;30315;46.072;14.474;2023-03-25T04:20:20;5.55;;;5.22;;
44606;SDS011;30315;46.072;14.474;2023-03-25T04:22:51;6.40;;;5.80;;
44606;SDS011;30315;46.072;14.474;2023-03-25T04:25:18;5.70;;;5.20;;
44606;SDS011;30315;46.072;14.474;2023-03-25T04:27:47;6.13;;;5.72;;
44606;SDS011;30315;46.072;14.474;2023-03-25T04:30:14;6.50;;;5.90;;
44606;SDS011;30315;46.072;14.474;2023-03-25T04:32:47;6.47;;;5.93;;
44606;SDS011;30315;46.072;14.474;2023-03-25T04:35:14;5.90;;;5.50;;
44606;SDS011;30315;46.072;14.474;2023-03-25T04:37:44;6.40;;;5.80;;
44606;SDS011;30315;46.072;14.474;2023-03-25T04:40:11;7.07;;;6.38;;
44606;SDS011;30315;46.072;14.474;2023-03-25T04:42:47;6.88;;;6.28;;
44606;SDS011;30315;46.072;14.474;2023-03-25T04:45:14;6.82;;;6.32;;
44606;SDS011;30315;46.072;14.474;2023-03-25T04:47:43;6.55;;;5.97;;
44606;SDS011;30315;46.072;14.474;2023-03-25T04:50:25;6.80;;;6.20;;
44606;SDS011;30315;46.072;14.474;2023-03-25T04:52:54;7.47;;;6.85;;
44606;SDS011;30315;46.072;14.474;2023-03-25T04:55:27;7.15;;;6.55;;
44606;SDS011;30315;46.072;14.474;2023-03-25T04:57:55;7.85;;;7.15;;
44606;SDS011;30315;46.072;14.474;2023-03-25T05:00:22;8.15;;;7.55;;
44606;SDS011;30315;46.072;14.474;2023-03-25T05:02:51;8.65;;;7.75;;
44606;SDS011;30315;46.072;14.474;2023-03-25T05:05:21;9.35;;;8.55;;
44606;SDS011;30315;46.072;14.474;2023-03-25T05:07:51;10.15;;;8.27;;
44606;SDS011;30315;46.072;14.474;2023-03-25T05:10:24;7.85;;;7.15;;
44606;SDS011;30315;46.072;14.474;2023-03-25T05:13:02;7.70;;;6.70;;
44606;SDS011;30315;46.072;14.474;2023-03-25T05:15:32;7.13;;;6.50;;
44606;SDS011;30315;46.072;14.474;2023-03-25T05:18:07;6.60;;;6.07;;
44606;SDS011;30315;46.072;14.474;2023-03-25T05:20:36;6.60;;;5.97;;
44606;SDS011;30315;46.072;14.474;2023-03-25T05:23:05;6.63;;;6.13;;
44606;SDS011;30315;46.072;14.474;2023-03-25T05:25:38;6.10;;;5.70;;
44606;SDS011;30315;46.072;14.474;2023-03-25T05:28:05;7.20;;;5.70;;
44606;SDS011;30315;46.072;14.474;2023-03-25T05:33:05;6.47;;;6.00;;
44606;SDS011;30315;46.072;14.474;2023-03-25T05:35:32;8.48;;;6.20;;
44606;SDS011;30315;46.072;14.474;2023-03-25T05:37:59;6.00;;;5.60;;
44606;SDS011;30315;46.072;14.474;2023-03-25T05:40:25;6.90;;;6.30;;
44606;SDS011;30315;46.072;14.474;2023-03-25T05:42:52;6.60;;;6.00;;
44606;SDS011;30315;46.072;14.474;2023-03-25T05:45:21;7.05;;;6.40;;
44606;SDS011;30315;46.072;14.474;2023-03-25T05:47:48;7.60;;;7.05;;
44606;SDS011;30315;46.072;14.474;2023-03-25T05:50:16;7.80;;;7.03;;
44606;SDS011;30315;46.072;14.474;2023-03-25T05:52:43;7.22;;;6.55;;
44606;SDS011;30315;46.072;14.474;2023-03-25T05:55:17;8.05;;;7.35;;
44606;SDS011;30315;46.072;14.474;2023-03-25T05:57:47;9.70;;;8.90;;
44606;SDS011;30315;46.072;14.474;2023-03-25T06:00:15;9.05;;;8.25;;
44606;SDS011;30315;46.072;14.474;2023-03-25T06:05:12;8.65;;;7.85;;
44606;SDS011;30315;46.072;14.474;2023-03-25T06:07:44;14.68;;;11.20;;
44606;SDS011;30315;46.072;14.474;2023-03-25T06:10:13;12.98;;;9.82;;
44606;SDS011;30315;46.072;14.474;2023-03-25T06:12:44;12.13;;;9.85;;
44606;SDS011;30315;46.072;14.474;2023-03-25T06:15:13;9.15;;;8.35;;
44606;SDS011;30315;46.072;14.474;2023-03-25T06:17:43;8.13;;;7.32;;
44606;SDS011;30315;46.072;14.474;2023-03-25T06:20:13;8.93;;;8.18;;
44606;SDS011;30315;46.072;14.474;2023-03-25T06:22:44;10.07;;;9.10;;
44606;SDS011;30315;46.072;14.474;2023-03-25T06:25:13;9.73;;;8.77;;
44606;SDS011;30315;46.072;14.474;2023-03-25T06:27:43;9.85;;;8.85;;
44606;SDS011;30315;46.072;14.474;2023-03-25T06:30:12;11.98;;;9.52;;
44606;SDS011;30315;46.072;14.474;2023-03-25T06:32:40;9.35;;;7.80;;
44606;SDS011;30315;46.072;14.474;2023-03-25T06:35:08;7.32;;;6.63;;
44606;SDS011;30315;46.072;14.474;2023-03-25T06:37:37;7.38;;;5.95;;
44606;SDS011;30315;46.072;14.474;2023-03-25T06:40:10;6.90;;;6.25;;
44606;SDS011;30315;46.072;14.474;2023-03-25T06:42:38;6.95;;;6.20;;
44606;SDS011;30315;46.072;14.474;2023-03-25T06:45:25;7.88;;;7.07;;
44606;SDS011;30315;46.072;14.474;2023-03-25T06:48:15;9.43;;;8.00;;
44606;SDS011;30315;46.072;14.474;2023-03-25T06:50:42;9.35;;;8.23;;
44606;SDS011;30315;46.072;14.474;2023-03-25T06:53:10;9.27;;;8.20;;
44606;SDS011;30315;46.072;14.474;2023-03-25T06:55:37;11.05;;;8.63;;
44606;SDS011;30315;46.072;14.474;2023-03-25T06:58:04;9.35;;;8.38;;
44606;SDS011;30315;46.072;14.474;2023-03-25T07:00:31;8.90;;;8.00;;
44606;SDS011;30315;46.072;14.474;2023-03-25T07:02:59;8.35;;;7.55;;
44606;SDS011;30315;46.072;14.474;2023-03-25T07:05:27;8.75;;;8.00;;
44606;SDS011;30315;46.072;14.474;2023-03-25T07:07:54;9.15;;;6.70;;
44606;SDS011;30315;46.072;14.474;2023-03-25T07:10:21;6.07;;;5.57;;
44606;SDS011;30315;46.072;14.474;2023-03-25T07:12:48;7.45;;;5.47;;
44606;SDS011;30315;46.072;14.474;2023-03-25T07:15:14;5.25;;;4.72;;
44606;SDS011;30315;46.072;14.474;2023-03-25T07:17:43;6.25;;;5.30;;
44606;SDS011;30315;46.072;14.474;2023-03-25T07:20:14;7.25;;;6.13;;
44606;SDS011;30315;46.072;14.474;2023-03-25T07:22:42;5.43;;;5.03;;
44606;SDS011;30315;46.072;14.474;2023-03-25T07:25:09;5.20;;;4.68;;
44606;SDS011;30315;46.072;14.474;2023-03-25T07:27:36;4.20;;;3.90;;
44606;SDS011;30315;46.072;14.474;2023-03-25T07:30:10;7.20;;;3.63;;
44606;SDS011;30315;46.072;14.474;2023-03-25T07:32:37;6.35;;;3.80;;
44606;SDS011;30315;46.072;14.474;2023-03-25T07:35:04;7.63;;;3.88;;
44606;SDS011;30315;46.072;14.474;2023-03-25T07:37:33;4.85;;;3.45;;
44606;SDS011;30315;46.072;14.474;2023-03-25T07:40:03;4.18;;;3.58;;
44606;SDS011;30315;46.072;14.474;2023-03-25T07:42:31;4.63;;;3.38;;
44606;SDS011;30315;46.072;14.474;2023-03-25T07:45:19;3.97;;;3.67;;
44606;SDS011;30315;46.072;14.474;2023-03-25T07:47:49;3.72;;;2.72;;
44606;SDS011;30315;46.072;14.474;2023-03-25T07:50:16;3.90;;;3.55;;
44606;SDS011;30315;46.072;14.474;2023-03-25T07:52:44;3.20;;;3.00;;
44606;SDS011;30315;46.072;14.474;2023-03-25T07:55:12;5.43;;;3.70;;
44606;SDS011;30315;46.072;14.474;2023-03-25T07:57:39;3.47;;;3.17;;
44606;SDS011;30315;46.072;14.474;2023-03-25T08:00:07;2.95;;;2.58;;
44606;SDS011;30315;46.072;14.474;2023-03-25T08:02:39;2.78;;;2.55;;
44606;SDS011;30315;46.072;14.474;2023-03-25T08:05:07;5.75;;;2.67;;
44606;SDS011;30315;46.072;14.474;2023-03-25T08:07:34;4.15;;;2.95;;
44606;SDS011;30315;46.072;14.474;2023-03-25T08:10:01;4.78;;;2.88;;
44606;SDS011;30315;46.072;14.474;2023-03-25T08:12:28;4.53;;;3.42;;
44606;SDS011;30315;46.072;14.474;2023-03-25T08:14:55;5.80;;;3.50;;
44606;SDS011;30315;46.072;14.474;2023-03-25T08:17:22;4.13;;;3.47;;
44606;SDS011;30315;46.072;14.474;2023-03-25T08:19:49;3.80;;;3.40;;
44606;SDS011;30315;46.072;14.474;2023-03-25T08:22:16;4.82;;;2.67;;
44606;SDS011;30315;46.072;14.474;2023-03-25T08:24:43;2.15;;;1.73;;
44606;SDS011;30315;46.072;14.474;2023-03-25T08:27:10;1.80;;;1.67;;
44606;SDS011;30315;46.072;14.474;2023-03-25T08:29:42;3.00;;;2.30;;
44606;SDS011;30315;46.072;14.474;2023-03-25T08:32:09;3.80;;;2.33;;
44606;SDS011;30315;46.072;14.474;2023-03-25T08:34:36;3.38;;;3.10;;
44606;SDS011;30315;46.072;14.474;2023-03-25T08:37:05;2.88;;;2.58;;
44606;SDS011;30315;46.072;14.474;2023-03-25T08:39:33;2.65;;;1.85;;
44606;SDS011;30315;46.072;14.474;2023-03-25T08:42:05;2.47;;;2.10;;
44606;SDS011;30315;46.072;14.474;2023-03-25T08:44:37;3.00;;;1.77;;
44606;SDS011;30315;46.072;14.474;2023-03-25T08:47:04;2.20;;;1.90;;
44606;SDS011;30315;46.072;14.474;2023-03-25T08:49:34;1.88;;;1.77;;
44606;SDS011;30315;46.072;14.474;2023-03-25T08:52:01;1.75;;;1.65;;
44606;SDS011;30315;46.072;14.474;2023-03-25T08:54:31;1.80;;;1.70;;
44606;SDS011;30315;46.072;14.474;2023-03-25T08:56:58;3.58;;;2.05;;
44606;SDS011;30315;46.072;14.474;2023-03-25T08:59:26;1.90;;;1.73;;
44606;SDS011;30315;46.072;14.474;2023-03-25T09:01:56;2.65;;;1.88;;
44606;SDS011;30315;46.072;14.474;2023-03-25T09:04:26;1.80;;;1.70;;
44606;SDS011;30315;46.072;14.474;2023-03-25T09:06:53;2.65;;;1.35;;
44606;SDS011;30315;46.072;14.474;2023-03-25T09:09:38;2.55;;;1.63;;
44606;SDS011;30315;46.072;14.474;2023-03-25T09:12:08;1.80;;;1.70;;
44606;SDS011;30315;46.072;14.474;2023-03-25T09:14:35;5.43;;;1.73;;
44606;SDS011;30315;46.072;14.474;2023-03-25T09:17:02;1.95;;;1.77;;
44606;SDS011;30315;46.072;14.474;2023-03-25T09:19:34;1.73;;;1.63;;
44606;SDS011;30315;46.072;14.474;2023-03-25T09:22:03;1.92;;;1.60;;
44606;SDS011;30315;46.072;14.474;2023-03-25T09:24:31;2.50;;;1.98;;
44606;SDS011;30315;46.072;14.474;2023-03-25T09:27:02;1.80;;;1.70;;
44606;SDS011;30315;46.072;14.474;2023-03-25T09:29:29;2.13;;;1.85;;
44606;SDS011;30315;46.072;14.474;2023-03-25T09:31:56;1.80;;;1.70;;
44606;SDS011;30315;46.072;14.474;2023-03-25T09:34:24;1.70;;;1.60;;
44606;SDS011;30315;46.072;14.474;2023-03-25T09:36:53;2.50;;;1.65;;
44606;SDS011;30315;46.072;14.474;2023-03-25T09:39:21;1.50;;;1.40;;
44606;SDS011;30315;46.072;14.474;2023-03-25T09:44:32;2.05;;;1.90;;
44606;SDS011;30315;46.072;14.474;2023-03-25T09:47:01;2.17;;;1.95;;
44606;SDS011;30315;46.072;14.474;2023-03-25T09:49:34;2.00;;;1.83;;
44606;SDS011;30315;46.072;14.474;2023-03-25T09:52:05;2.55;;;2.08;;
44606;SDS011;30315;46.072;14.474;2023-03-25T09:54:45;2.28;;;2.08;;
44606;SDS011;30315;46.072;14.474;2023-03-25T09:57:19;3.28;;;2.50;;
44606;SDS011;30315;46.072;14.474;2023-03-25T09:59:50;3.28;;;2.38;;
44606;SDS011;30315;46.072;14.474;2023-03-25T10:08:11;2.50;;;2.30;;
44606;SDS011;30315;46.072;14.474;2023-03-25T10:10:51;3.30;;;3.00;;
44606;SDS011;30315;46.072;14.474;2023-03-25T10:21:57;3.35;;;2.33;;
44606;SDS011;30315;46.072;14.474;2023-03-25T10:24:35;2.22;;;2.03;;
44606;SDS011;30315;46.072;14.474;2023-03-25T10:27:26;2.30;;;2.10;;
44606;SDS011;30315;46.072;14.474;2023-03-25T10:35:20;2.92;;;2.72;;
44606;SDS011;30315;46.072;14.474;2023-03-25T10:37:59;3.20;;;2.90;;
44606;SDS011;30315;46.072;14.474;2023-03-25T10:40:44;5.13;;;2.80;;
44606;SDS011;30315;46.072;14.474;2023-03-25T10:46:01;2.33;;;2.20;;
44606;SDS011;30315;46.072;14.474;2023-03-25T10:48:32;2.30;;;2.10;;
44606;SDS011;30315;46.072;14.474;2023-03-25T10:51:12;2.75;;;2.15;;
44606;SDS011;30315;46.072;14.474;2023-03-25T10:53:47;2.13;;;1.92;;
44606;SDS011;30315;46.072;14.474;2023-03-25T10:56:19;2.30;;;2.20;;
44606;SDS011;30315;46.072;14.474;2023-03-25T10:58:51;2.50;;;2.30;;
44606;SDS011;30315;46.072;14.474;2023-03-25T11:04:06;2.35;;;1.80;;
44606;SDS011;30315;46.072;14.474;2023-03-25T11:06:37;1.90;;;1.55;;
44606;SDS011;30315;46.072;14.474;2023-03-25T11:09:09;1.88;;;1.77;;
44606;SDS011;30315;46.072;14.474;2023-03-25T11:11:51;1.40;;;1.30;;
44606;SDS011;30315;46.072;14.474;2023-03-25T11:14:23;1.58;;;1.48;;
44606;SDS011;30315;46.072;14.474;2023-03-25T11:16:59;1.13;;;1.10;;
44606;SDS011;30315;46.072;14.474;2023-03-25T11:19:38;2.05;;;1.30;;
44606;SDS011;30315;46.072;14.474;2023-03-25T11:22:18;1.33;;;1.23;;
44606;SDS011;30315;46.072;14.474;2023-03-25T11:24:51;1.30;;;1.30;;
44606;SDS011;30315;46.072;14.474;2023-03-25T11:27:25;1.67;;;1.58;;
44606;SDS011;30315;46.072;14.474;2023-03-25T11:29:58;1.33;;;1.30;;
44606;SDS011;30315;46.072;14.474;2023-03-25T11:32:35;1.67;;;1.60;;
44606;SDS011;30315;46.072;14.474;2023-03-25T11:38:15;2.22;;;2.10;;
44606;SDS011;30315;46.072;14.474;2023-03-25T11:40:50;1.80;;;1.70;;
44606;SDS011;30315;46.072;14.474;2023-03-25T11:43:29;2.60;;;2.40;;
44606;SDS011;30315;46.072;14.474;2023-03-25T11:46:12;2.03;;;1.92;;
44606;SDS011;30315;46.072;14.474;2023-03-25T11:48:41;2.80;;;2.27;;
44606;SDS011;30315;46.072;14.474;2023-03-25T11:51:15;3.70;;;3.40;;
44606;SDS011;30315;46.072;14.474;2023-03-25T11:53:58;5.38;;;3.80;;
44606;SDS011;30315;46.072;14.474;2023-03-25T11:56:33;10.65;;;6.72;;
44606;SDS011;30315;46.072;14.474;2023-03-25T11:59:06;5.50;;;3.88;;
44606;SDS011;30315;46.072;14.474;2023-03-25T12:01:45;2.55;;;2.42;;
44606;SDS011;30315;46.072;14.474;2023-03-25T12:04:15;2.33;;;2.22;;
44606;SDS011;30315;46.072;14.474;2023-03-25T12:09:35;2.60;;;2.40;;
44606;SDS011;30315;46.072;14.474;2023-03-25T12:17:48;1.95;;;1.75;;
44606;SDS011;30315;46.072;14.474;2023-03-25T12:31:33;2.90;;;2.70;;
44606;SDS011;30315;46.072;14.474;2023-03-25T12:42:59;2.80;;;2.60;;
44606;SDS011;30315;46.072;14.474;2023-03-25T13:07:25;1.30;;;1.20;;
44606;SDS011;30315;46.072;14.474;2023-03-25T13:10:10;2.92;;;1.27;;
44606;SDS011;30315;46.072;14.474;2023-03-25T13:12:56;1.17;;;1.17;;
44606;SDS011;30315;46.072;14.474;2023-03-25T13:17:56;1.35;;;1.35;;
44606;SDS011;30315;46.072;14.474;2023-03-25T13:20:25;1.10;;;1.10;;
44606;SDS011;30315;46.072;14.474;2023-03-25T13:22:55;1.67;;;1.05;;
44606;SDS011;30315;46.072;14.474;2023-03-25T13:28:04;1.08;;;1.08;;
44606;SDS011;30315;46.072;14.474;2023-03-25T13:30:37;1.20;;;0.80;;
44606;SDS011;30315;46.072;14.474;2023-03-25T13:33:15;0.60;;;0.60;;
44606;SDS011;30315;46.072;14.474;2023-03-25T13:35:52;0.60;;;0.60;;
44606;SDS011;30315;46.072;14.474;2023-03-25T13:39:01;0.70;;;0.70;;
44606;SDS011;30315;46.072;14.474;2023-03-25T13:45:01;0.70;;;0.70;;
44606;SDS011;30315;46.072;14.474;2023-03-25T13:47:32;1.00;;;1.00;;
44606;SDS011;30315;46.072;14.474;2023-03-25T13:50:07;1.42;;;1.33;;
44606;SDS011;30315;46.072;14.474;2023-03-25T13:52:44;0.80;;;0.80;;
44606;SDS011;30315;46.072;14.474;2023-03-25T13:55:17;0.90;;;0.90;;
44606;SDS011;30315;46.072;14.474;2023-03-25T14:00:50;1.90;;;0.98;;
44606;SDS011;30315;46.072;14.474;2023-03-25T14:11:57;0.93;;;0.90;;
44606;SDS011;30315;46.072;14.474;2023-03-25T14:14:35;1.55;;;0.85;;
44606;SDS011;30315;46.072;14.474;2023-03-25T14:17:07;0.90;;;0.90;;
44606;SDS011;30315;46.072;14.474;2023-03-25T14:19:36;1.25;;;0.63;;
44606;SDS011;30315;46.072;14.474;2023-03-25T14:24:35;0.80;;;0.80;;
44606;SDS011;30315;46.072;14.474;2023-03-25T14:27:24;0.80;;;0.80;;
44606;SDS011;30315;46.072;14.474;2023-03-25T14:29:58;0.70;;;0.70;;
44606;SDS011;30315;46.072;14.474;2023-03-25T14:32:31;1.08;;;1.08;;
44606;SDS011;30315;46.072;14.474;2023-03-25T14:40:44;0.70;;;0.70;;
44606;SDS011;30315;46.072;14.474;2023-03-25T14:43:38;0.90;;;0.90;;
44606;SDS011;30315;46.072;14.474;2023-03-25T14:56:22;0.70;;;0.70;;
44606;SDS011;30315;46.072;14.474;2023-03-25T14:58:55;1.13;;;1.02;;
44606;SDS011;30315;46.072;14.474;2023-03-25T15:01:29;1.20;;;1.20;;
44606;SDS011;30315;46.072;14.474;2023-03-25T15:04:10;1.52;;;1.42;;
44606;SDS011;30315;46.072;14.474;2023-03-25T15:06:44;2.10;;;2.00;;
44606;SDS011;30315;46.072;14.474;2023-03-25T15:09:15;1.10;;;1.00;;
44606;SDS011;30315;46.072;14.474;2023-03-25T15:11:49;0.80;;;0.80;;
44606;SDS011;30315;46.072;14.474;2023-03-25T15:14:26;0.80;;;0.80;;
44606;SDS011;30315;46.072;14.474;2023-03-25T15:16:59;0.85;;;0.85;;
44606;SDS011;30315;46.072;14.474;2023-03-25T15:22:31;1.52;;;1.42;;
44606;SDS011;30315;46.072;14.474;2023-03-25T15:24:58;1.75;;;0.88;;
44606;SDS011;30315;46.072;14.474;2023-03-25T15:35:54;0.88;;;0.88;;
44606;SDS011;30315;46.072;14.474;2023-03-25T15:38:42;1.58;;;1.00;;
44606;SDS011;30315;46.072;14.474;2023-03-25T15:41:36;2.58;;;1.10;;
44606;SDS011;30315;46.072;14.474;2023-03-25T15:55:19;1.60;;;1.50;;
44606;SDS011;30315;46.072;14.474;2023-03-25T15:57:53;2.50;;;2.30;;
44606;SDS011;30315;46.072;14.474;2023-03-25T16:00:35;12.20;;;9.40;;
44606;SDS011;30315;46.072;14.474;2023-03-25T16:03:10;5.72;;;4.53;;
44606;SDS011;30315;46.072;14.474;2023-03-25T16:05:50;2.75;;;2.55;;
44606;SDS011;30315;46.072;14.474;2023-03-25T16:08:27;1.20;;;1.10;;
44606;SDS011;30315;46.072;14.474;2023-03-25T16:11:12;2.40;;;2.20;;
44606;SDS011;30315;46.072;14.474;2023-03-25T16:13:41;5.85;;;5.35;;
44606;SDS011;30315;46.072;14.474;2023-03-25T16:16:08;5.90;;;5.40;;
44606;SDS011;30315;46.072;14.474;2023-03-25T16:18:40;2.53;;;2.38;;
44606;SDS011;30315;46.072;14.474;2023-03-25T16:21:10;1.80;;;1.70;;
44606;SDS011;30315;46.072;14.474;2023-03-25T16:23:37;1.20;;;1.20;;
44606;SDS011;30315;46.072;14.474;2023-03-25T16:26:05;1.00;;;1.00;;
44606;SDS011;30315;46.072;14.474;2023-03-25T16:28:33;1.30;;;1.20;;
44606;SDS011;30315;46.072;14.474;2023-03-25T16:31:05;1.40;;;1.10;;
44606;SDS011;30315;46.072;14.474;2023-03-25T16:33:39;0.93;;;0.93;;
44606;SDS011;30315;46.072;14.474;2023-03-25T16:36:07;1.30;;;1.20;;
44606;SDS011;30315;46.072;14.474;2023-03-25T16:38:42;1.02;;;0.90;;
44606;SDS011;30315;46.072;14.474;2023-03-25T16:41:10;0.82;;;0.82;;
44606;SDS011;30315;46.072;14.474;2023-03-25T16:43:41;0.80;;;0.80;;
44606;SDS011;30315;46.072;14.474;2023-03-25T16:46:10;1.90;;;1.80;;
44606;SDS011;30315;46.072;14.474;2023-03-25T16:48:41;1.17;;;1.10;;
44606;SDS011;30315;46.072;14.474;2023-03-25T16:51:15;1.10;;;1.02;;
44606;SDS011;30315;46.072;14.474;2023-03-25T16:53:50;0.85;;;0.85;;
44606;SDS011;30315;46.072;14.474;2023-03-25T16:56:22;3.15;;;1.63;;
44606;SDS011;30315;46.072;14.474;2023-03-25T16:59:00;1.48;;;1.38;;
44606;SDS011;30315;46.072;14.474;2023-03-25T17:01:36;1.73;;;1.63;;
44606;SDS011;30315;46.072;14.474;2023-03-25T17:04:15;2.90;;;1.73;;
44606;SDS011;30315;46.072;14.474;2023-03-25T17:07:00;1.40;;;1.30;;
44606;SDS011;30315;46.072;14.474;2023-03-25T17:09:34;1.67;;;1.58;;
44606;SDS011;30315;46.072;14.474;2023-03-25T17:12:06;1.73;;;1.63;;
44606;SDS011;30315;46.072;14.474;2023-03-25T17:14:42;1.73;;;1.63;;
44606;SDS011;30315;46.072;14.474;2023-03-25T17:20:03;2.10;;;2.00;;
44606;SDS011;30315;46.072;14.474;2023-03-25T17:22:35;3.10;;;1.90;;
44606;SDS011;30315;46.072;14.474;2023-03-25T17:25:26;2.40;;;2.30;;
44606;SDS011;30315;46.072;14.474;2023-03-25T17:28:00;2.50;;;2.30;;
44606;SDS011;30315;46.072;14.474;2023-03-25T17:30:39;2.38;;;2.22;;
44606;SDS011;30315;46.072;14.474;2023-03-25T17:33:10;3.22;;;2.50;;
44606;SDS011;30315;46.072;14.474;2023-03-25T17:35:39;5.90;;;3.58;;
44606;SDS011;30315;46.072;14.474;2023-03-25T17:38:27;10.38;;;6.85;;
44606;SDS011;30315;46.072;14.474;2023-03-25T17:41:00;10.48;;;7.68;;
44606;SDS011;30315;46.072;14.474;2023-03-25T17:43:35;15.88;;;9.43;;
44606;SDS011;30315;46.072;14.474;2023-03-25T17:46:07;11.32;;;8.32;;
44606;SDS011;30315;46.072;14.474;2023-03-25T17:48:35;11.27;;;7.70;;
44606;SDS011;30315;46.072;14.474;2023-03-25T17:51:02;13.27;;;8.68;;
44606;SDS011;30315;46.072;14.474;2023-03-25T17:53:29;29.00;;;14.38;;
44606;SDS011;30315;46.072;14.474;2023-03-25T17:55:56;22.08;;;13.25;;
44606;SDS011;30315;46.072;14.474;2023-03-25T17:58:24;16.67;;;11.95;;
44606;SDS011;30315;46.072;14.474;2023-03-25T18:00:51;18.88;;;12.00;;
44606;SDS011;30315;46.072;14.474;2023-03-25T18:03:20;16.00;;;12.10;;
44606;SDS011;30315;46.072;14.474;2023-03-25T18:05:51;26.50;;;16.42;;
44606;SDS011;30315;46.072;14.474;2023-03-25T18:08:20;24.80;;;14.93;;
44606;SDS011;30315;46.072;14.474;2023-03-25T18:10:49;26.53;;;14.20;;
44606;SDS011;30315;46.072;14.474;2023-03-25T18:13:18;19.67;;;12.95;;
44606;SDS011;30315;46.072;14.474;2023-03-25T18:15:47;16.63;;;10.57;;
44606;SDS011;30315;46.072;14.474;2023-03-25T18:18:15;16.05;;;10.73;;